createdAt,value
2022-08-12T00:00:37.159Z,71.20
2022-08-12T00:02:03.576Z,71.37
2022-08-12T00:02:38.224Z,71.10
2022-08-12T00:03:37.174Z,71.30
2022-08-12T00:04:37.063Z,72.11
2022-08-12T00:05:37.056Z,71.70
2022-08-12T00:06:37.066Z,71.80
2022-08-12T00:07:37.026Z,72.34
2022-08-12T00:08:37.230Z,71.94
2022-08-12T00:09:37.004Z,72.04
2022-08-12T00:10:36.999Z,72.34
2022-08-12T00:11:36.983Z,72.24
2022-08-12T00:12:36.976Z,72.24
2022-08-12T00:13:36.960Z,72.24
2022-08-12T00:14:37.067Z,72.04
2022-08-12T00:15:36.935Z,71.84
2022-08-12T00:16:36.933Z,72.24
2022-08-12T00:17:37.060Z,72.34
2022-08-12T00:18:36.927Z,72.55
2022-08-12T00:19:36.921Z,72.14
2022-08-12T00:20:36.884Z,72.75
2022-08-12T00:21:36.871Z,72.55
2022-08-12T00:22:36.860Z,72.55
2022-08-12T00:23:36.851Z,72.24
2022-08-12T00:24:36.871Z,73.15
2022-08-12T00:26:00.521Z,73.05
2022-08-12T00:26:37.818Z,72.55
2022-08-12T00:27:43.479Z,72.68
2022-08-12T00:28:37.794Z,72.34
2022-08-12T00:29:36.804Z,72.95
2022-08-12T00:30:36.775Z,72.78
2022-08-12T00:31:36.781Z,72.78
2022-08-12T00:32:36.856Z,73.39
2022-08-12T00:33:51.731Z,73.90
2022-08-12T00:34:37.724Z,73.28
2022-08-12T00:35:37.020Z,73.59
2022-08-12T00:36:36.727Z,73.79
2022-08-12T00:37:36.695Z,73.19
2022-08-12T00:38:36.686Z,72.78
2022-08-12T00:39:36.843Z,73.28
2022-08-12T00:40:36.661Z,73.19
2022-08-12T00:41:36.651Z,73.79
2022-08-12T00:42:36.669Z,73.43
2022-08-12T00:43:36.632Z,73.08
2022-08-12T00:44:36.639Z,73.52
2022-08-12T00:45:36.607Z,73.93
2022-08-12T00:46:36.639Z,74.33
2022-08-12T00:47:36.602Z,75.01
2022-08-12T00:48:36.596Z,74.63
2022-08-12T00:49:36.559Z,75.14
2022-08-12T00:50:36.555Z,75.14
2022-08-12T00:51:36.538Z,75.34
2022-08-12T00:52:36.550Z,74.13
2022-08-12T00:53:36.552Z,74.03
2022-08-12T00:54:36.512Z,73.72
2022-08-12T00:55:36.495Z,74.23
2022-08-12T00:56:36.485Z,75.34
2022-08-12T00:57:36.627Z,75.04
2022-08-12T00:58:36.496Z,75.04
2022-08-12T00:59:36.469Z,75.34
2022-08-12T01:00:36.439Z,75.24
2022-08-12T01:02:01.050Z,75.34
2022-08-12T01:02:37.417Z,74.94
2022-08-12T01:03:36.406Z,75.55
2022-08-12T01:04:36.417Z,77.26
2022-08-12T01:05:36.383Z,77.17
2022-08-12T01:06:36.375Z,76.97
2022-08-12T01:07:36.362Z,77.67
2022-08-12T01:08:36.350Z,77.97
2022-08-12T01:09:36.360Z,78.11
2022-08-12T01:10:36.329Z,78.11
2022-08-12T01:11:36.317Z,78.01
2022-08-12T01:12:36.308Z,77.91
2022-08-12T01:13:36.301Z,78.11
2022-08-12T01:14:36.308Z,77.81
2022-08-12T01:15:36.272Z,78.21
2022-08-12T01:16:36.260Z,78.72
2022-08-12T01:17:36.250Z,77.91
2022-08-12T01:18:36.262Z,77.64
2022-08-12T01:19:36.234Z,77.34
2022-08-12T01:20:36.218Z,77.34
2022-08-12T01:21:36.226Z,77.95
2022-08-12T01:22:36.198Z,78.66
2022-08-12T01:23:36.196Z,78.96
2022-08-12T01:24:36.174Z,78.75
2022-08-12T01:25:39.739Z,78.86
2022-08-12T01:26:37.169Z,78.45
2022-08-12T01:27:36.144Z,78.25
2022-08-12T01:28:36.132Z,78.25
2022-08-12T01:29:36.120Z,78.66
2022-08-12T01:30:36.107Z,79.20
2022-08-12T01:31:36.114Z,79.10
2022-08-12T01:32:36.084Z,79.67
2022-08-12T01:33:36.073Z,80.01
2022-08-12T01:34:37.608Z,79.71
2022-08-12T01:35:36.070Z,79.50
2022-08-12T01:36:36.047Z,79.20
2022-08-12T01:37:36.031Z,78.59
2022-08-12T01:38:36.025Z,78.28
2022-08-12T01:39:36.107Z,79.30
2022-08-12T01:40:38.644Z,80.31
2022-08-12T01:41:35.984Z,80.72
2022-08-12T01:42:35.997Z,80.41
2022-08-12T01:43:35.961Z,79.91
2022-08-12T01:44:35.949Z,80.72
2022-08-12T01:45:42.946Z,80.52
2022-08-12T01:46:36.928Z,81.73
2022-08-12T01:47:35.942Z,81.63
2022-08-12T01:48:35.906Z,82.44
2022-08-12T01:49:35.895Z,82.78
2022-08-12T01:50:35.887Z,82.48
2022-08-12T01:52:07.475Z,82.07
2022-08-12T01:52:36.998Z,81.77
2022-08-12T01:53:50.173Z,82.07
2022-08-12T01:54:36.843Z,81.77
2022-08-12T01:55:35.826Z,81.77
2022-08-12T01:56:35.819Z,82.07
2022-08-12T01:57:58.084Z,81.87
2022-08-12T01:58:36.840Z,82.01
2022-08-12T01:59:35.782Z,81.71
2022-08-12T02:00:44.976Z,81.71
2022-08-12T02:01:36.821Z,82.01
2022-08-12T02:02:35.858Z,81.91
2022-08-12T02:03:35.758Z,81.71
2022-08-12T02:04:35.729Z,81.91
2022-08-12T02:05:35.720Z,82.21
2022-08-12T02:06:35.729Z,82.72
2022-08-12T02:07:35.694Z,82.92
2022-08-12T02:08:35.721Z,83.23
2022-08-12T02:09:35.671Z,83.43
2022-08-12T02:10:50.802Z,83.03
2022-08-12T02:11:36.660Z,83.33
2022-08-12T02:12:35.689Z,82.52
2022-08-12T02:13:48.626Z,82.31
2022-08-12T02:14:36.635Z,82.25
2022-08-12T02:15:35.606Z,82.11
2022-08-12T02:16:35.594Z,82.11
2022-08-12T02:17:55.744Z,82.05
2022-08-12T02:18:36.573Z,83.12
2022-08-12T02:19:35.582Z,83.47
2022-08-12T02:20:51.996Z,82.45
2022-08-12T02:21:36.534Z,82.86
2022-08-12T02:22:35.566Z,82.56
2022-08-12T02:23:35.532Z,82.86
2022-08-12T02:24:35.528Z,82.76
2022-08-12T02:25:35.490Z,82.86
2022-08-12T02:26:35.485Z,83.26
2022-08-12T02:27:35.472Z,83.37
2022-08-12T02:28:35.489Z,83.06
2022-08-12T02:29:35.447Z,83.06
2022-08-12T02:30:42.374Z,83.26
2022-08-12T02:31:36.420Z,83.26
2022-08-12T02:32:35.507Z,83.10
2022-08-12T02:33:35.422Z,83.47
2022-08-12T02:34:35.393Z,83.31
2022-08-12T02:35:35.406Z,83.51
2022-08-12T02:36:35.985Z,83.31
2022-08-12T02:37:35.358Z,83.71
2022-08-12T02:38:35.350Z,83.51
2022-08-12T02:39:35.361Z,83.40
2022-08-12T02:40:35.348Z,83.61
2022-08-12T02:41:35.312Z,83.91
2022-08-12T02:42:35.351Z,83.91
2022-08-12T02:43:35.290Z,84.42
2022-08-12T02:44:35.281Z,84.42
2022-08-12T02:45:35.289Z,84.12
2022-08-12T02:46:35.280Z,84.72
2022-08-12T02:48:00.711Z,84.22
2022-08-12T02:48:36.232Z,84.56
2022-08-12T02:49:35.220Z,84.42
2022-08-12T02:50:35.214Z,84.66
2022-08-12T02:51:35.201Z,84.16
2022-08-12T02:52:35.223Z,85.38
2022-08-12T02:53:35.201Z,84.56
2022-08-12T02:54:35.169Z,84.77
2022-08-12T02:55:35.362Z,84.77
2022-08-12T02:56:35.151Z,85.27
2022-08-12T02:57:35.134Z,85.27
2022-08-12T02:58:35.286Z,85.47
2022-08-12T02:59:35.113Z,85.52
2022-08-12T03:00:35.109Z,85.68
2022-08-12T03:01:35.333Z,85.31
2022-08-12T03:02:35.136Z,85.52
2022-08-12T03:03:35.066Z,85.41
2022-08-12T03:04:36.375Z,85.21
2022-08-12T03:05:38.608Z,85.31
2022-08-12T03:06:36.034Z,85.41
2022-08-12T03:07:59.590Z,85.21
2022-08-12T03:08:36.010Z,84.91
2022-08-12T03:10:03.701Z,85.52
2022-08-12T03:10:37.749Z,84.91
2022-08-12T03:11:37.737Z,85.31
2022-08-12T03:12:36.075Z,85.05
2022-08-12T03:13:35.960Z,85.52
2022-08-12T03:14:34.967Z,85.86
2022-08-12T03:15:34.954Z,85.76
2022-08-12T03:16:36.930Z,85.25
2022-08-12T03:17:34.911Z,85.46
2022-08-12T03:18:34.922Z,85.41
2022-08-12T03:19:34.888Z,85.62
2022-08-12T03:20:34.878Z,85.55
2022-08-12T03:21:57.855Z,85.55
2022-08-12T03:22:35.874Z,85.55
2022-08-12T03:23:34.864Z,86.16
2022-08-12T03:24:34.832Z,85.66
2022-08-12T03:25:34.820Z,86.07
2022-08-12T03:26:34.811Z,85.96
2022-08-12T03:27:34.824Z,85.96
2022-08-12T03:28:34.787Z,85.76
2022-08-12T03:29:50.075Z,86.77
2022-08-12T03:30:35.768Z,86.98
2022-08-12T03:31:34.753Z,86.47
2022-08-12T03:32:35.761Z,86.07
2022-08-12T03:33:34.730Z,86.37
2022-08-12T03:34:34.721Z,85.76
2022-08-12T03:35:41.477Z,86.16
2022-08-12T03:36:35.938Z,85.96
2022-08-12T03:37:34.706Z,85.96
2022-08-12T03:38:34.676Z,86.88
2022-08-12T03:39:36.196Z,86.47
2022-08-12T03:40:34.655Z,85.96
2022-08-12T03:41:34.674Z,86.31
2022-08-12T03:42:34.633Z,85.96
2022-08-12T03:43:34.619Z,86.88
2022-08-12T03:44:34.609Z,86.88
2022-08-12T03:45:34.597Z,86.57
2022-08-12T03:46:35.609Z,87.08
2022-08-12T03:47:34.575Z,87.08
2022-08-12T03:48:34.563Z,87.02
2022-08-12T03:49:34.556Z,86.98
2022-08-12T03:50:34.541Z,87.08
2022-08-12T03:51:34.531Z,86.61
2022-08-12T03:52:34.596Z,87.23
2022-08-12T03:53:34.532Z,86.82
2022-08-12T03:54:35.786Z,86.82
2022-08-12T03:55:34.483Z,86.82
2022-08-12T03:56:34.473Z,86.21
2022-08-12T03:57:34.486Z,86.31
2022-08-12T03:58:34.452Z,87.12
2022-08-12T03:59:34.444Z,86.92
2022-08-12T04:00:34.563Z,86.82
2022-08-12T04:01:40.850Z,86.82
2022-08-12T04:02:35.510Z,86.82
2022-08-12T04:03:34.397Z,87.02
2022-08-12T04:04:34.384Z,87.12
2022-08-12T04:05:55.377Z,86.65
2022-08-12T04:06:36.024Z,86.15
2022-08-12T04:07:34.358Z,86.31
2022-08-12T04:08:34.364Z,86.45
2022-08-12T04:09:34.329Z,86.55
2022-08-12T04:10:34.316Z,86.55
2022-08-12T04:11:34.332Z,86.51
2022-08-12T04:12:35.540Z,86.04
2022-08-12T04:13:34.307Z,86.65
2022-08-12T04:14:34.271Z,86.86
2022-08-12T04:15:34.259Z,86.92
2022-08-12T04:16:34.245Z,86.96
2022-08-12T04:17:34.262Z,86.61
2022-08-12T04:18:34.222Z,87.02
2022-08-12T04:19:34.217Z,86.71
2022-08-12T04:20:34.202Z,86.92
2022-08-12T04:21:34.193Z,87.12
2022-08-12T04:22:34.177Z,87.32
2022-08-12T04:23:34.189Z,87.37
2022-08-12T04:24:34.157Z,87.67
2022-08-12T04:25:34.167Z,86.65
2022-08-12T04:26:34.135Z,87.06
2022-08-12T04:27:34.127Z,86.61
2022-08-12T04:28:34.114Z,86.71
2022-08-12T04:30:21.225Z,86.41
2022-08-12T04:30:35.086Z,86.51
2022-08-12T04:31:34.100Z,86.10
2022-08-12T04:32:34.068Z,85.60
2022-08-12T04:33:34.058Z,85.70
2022-08-12T04:34:34.045Z,85.80
2022-08-12T04:35:34.064Z,85.90
2022-08-12T04:36:34.023Z,85.90
2022-08-12T04:37:58.776Z,86.51
2022-08-12T04:38:35.018Z,87.02
2022-08-12T04:39:34.067Z,86.82
2022-08-12T04:40:34.005Z,86.71
2022-08-12T04:41:33.968Z,86.82
2022-08-12T04:42:33.957Z,86.61
2022-08-12T04:43:55.342Z,86.41
2022-08-12T04:44:34.932Z,86.61
2022-08-12T04:45:33.950Z,86.51
2022-08-12T04:46:34.758Z,86.82
2022-08-12T04:47:33.900Z,86.82
2022-08-12T04:48:33.889Z,87.23
2022-08-12T04:49:33.878Z,86.68
2022-08-12T04:50:36.927Z,87.12
2022-08-12T04:51:33.875Z,87.12
2022-08-12T04:52:35.035Z,86.61
2022-08-12T04:53:33.833Z,86.88
2022-08-12T04:54:33.821Z,86.71
2022-08-12T04:55:33.830Z,86.68
2022-08-12T04:56:35.425Z,87.08
2022-08-12T04:57:33.788Z,87.84
2022-08-12T04:58:33.784Z,87.49
2022-08-12T04:59:43.686Z,87.59
2022-08-12T05:00:34.755Z,87.93
2022-08-12T05:01:33.747Z,87.53
2022-08-12T05:02:33.860Z,87.63
2022-08-12T05:03:46.097Z,87.69
2022-08-12T05:04:34.708Z,87.49
2022-08-12T05:05:36.083Z,87.38
2022-08-12T05:06:33.708Z,87.89
2022-08-12T05:07:33.678Z,87.89
2022-08-12T05:08:33.665Z,87.69
2022-08-12T05:10:00.795Z,87.79
2022-08-12T05:10:36.073Z,87.59
2022-08-12T05:11:33.633Z,87.18
2022-08-12T05:12:33.641Z,87.08
2022-08-12T05:13:33.609Z,86.68
2022-08-12T05:14:37.524Z,86.57
2022-08-12T05:15:33.589Z,86.77
2022-08-12T05:16:34.303Z,85.55
2022-08-12T05:17:33.585Z,85.55
2022-08-12T05:18:33.559Z,85.21
2022-08-12T05:19:33.575Z,85.55
2022-08-12T05:20:33.533Z,85.01
2022-08-12T05:21:33.522Z,84.70
2022-08-12T05:22:37.094Z,84.30
2022-08-12T05:23:33.499Z,84.60
2022-08-12T05:24:33.506Z,85.47
2022-08-12T05:25:33.476Z,85.31
2022-08-12T05:26:33.464Z,85.21
2022-08-12T05:27:33.477Z,85.47
2022-08-12T05:28:33.440Z,85.27
2022-08-12T05:30:05.689Z,85.47
2022-08-12T05:30:34.421Z,85.13
2022-08-12T05:31:40.569Z,85.07
2022-08-12T05:32:34.427Z,84.93
2022-08-12T05:33:33.387Z,84.12
2022-08-12T05:34:33.376Z,84.42
2022-08-12T05:35:33.364Z,84.22
2022-08-12T05:36:33.352Z,83.91
2022-08-12T05:37:33.343Z,83.91
2022-08-12T05:38:33.353Z,83.87
2022-08-12T05:39:33.360Z,82.86
2022-08-12T05:40:33.308Z,82.86
2022-08-12T05:41:33.299Z,83.43
2022-08-12T05:42:34.451Z,82.42
2022-08-12T05:43:33.276Z,83.12
2022-08-12T05:44:33.283Z,82.92
2022-08-12T05:45:33.256Z,82.62
2022-08-12T05:46:33.251Z,82.01
2022-08-12T05:47:52.302Z,81.91
2022-08-12T05:48:34.216Z,81.77
2022-08-12T05:49:33.229Z,81.77
2022-08-12T05:50:33.197Z,81.23
2022-08-12T05:51:40.895Z,81.23
2022-08-12T05:52:34.173Z,80.31
2022-08-12T05:53:33.166Z,80.31
2022-08-12T05:54:56.286Z,79.97
2022-08-12T05:55:34.146Z,79.97
2022-08-12T05:56:33.152Z,79.97
2022-08-12T05:57:33.123Z,79.13
2022-08-12T05:58:33.108Z,79.29
2022-08-12T05:59:33.118Z,79.08
2022-08-12T06:00:33.088Z,78.75
2022-08-12T06:02:12.666Z,77.36
2022-08-12T06:02:34.063Z,76.88
2022-08-12T06:03:33.102Z,74.69
2022-08-12T06:04:33.069Z,73.11
2022-08-12T06:05:33.032Z,72.37
2022-08-12T06:06:36.560Z,71.33
2022-08-12T06:07:59.447Z,70.76
2022-08-12T06:08:33.996Z,69.12
2022-08-12T06:09:33.063Z,68.59
2022-08-12T06:10:33.271Z,67.65
2022-08-12T06:11:32.986Z,66.05
2022-08-12T06:12:32.952Z,64.91
2022-08-12T06:13:53.196Z,65.91
2022-08-12T06:14:33.930Z,65.64
2022-08-12T06:15:32.932Z,66.35
2022-08-12T06:16:32.911Z,68.02
2022-08-12T06:17:32.920Z,68.05
2022-08-12T06:18:32.889Z,67.95
2022-08-12T06:20:27.290Z,67.14
2022-08-12T06:20:34.399Z,66.14
2022-08-12T06:21:32.855Z,65.74
2022-08-12T06:22:32.869Z,64.94
2022-08-12T06:23:32.839Z,65.91
2022-08-12T06:24:32.821Z,64.40
2022-08-12T06:25:32.813Z,65.91
2022-08-12T06:26:32.798Z,65.21
2022-08-12T06:27:32.791Z,65.61
2022-08-12T06:28:32.799Z,64.91
2022-08-12T06:30:07.350Z,63.67
2022-08-12T06:30:37.889Z,63.98
2022-08-12T06:31:33.747Z,65.28
2022-08-12T06:32:32.733Z,63.78
2022-08-12T06:33:55.427Z,64.31
2022-08-12T06:35:25.183Z,65.31
2022-08-12T06:35:48.100Z,65.01
2022-08-12T06:36:33.891Z,66.91
2022-08-12T06:37:32.682Z,66.41
2022-08-12T06:38:32.665Z,64.81
2022-08-12T06:39:32.715Z,64.11
2022-08-12T06:40:32.664Z,63.70
2022-08-12T06:41:32.635Z,63.50
2022-08-12T06:42:33.545Z,64.11
2022-08-12T06:44:06.119Z,63.31
2022-08-12T06:44:33.599Z,62.80
2022-08-12T06:45:45.700Z,63.17
2022-08-12T06:46:33.597Z,64.01
2022-08-12T06:47:32.573Z,63.10
2022-08-12T06:48:32.556Z,62.40
2022-08-12T06:49:32.547Z,62.67
2022-08-12T06:50:34.748Z,62.87
2022-08-12T06:51:32.786Z,63.98
2022-08-12T06:52:32.514Z,63.07
2022-08-12T06:53:32.502Z,62.97
2022-08-12T06:54:32.536Z,62.77
2022-08-12T06:55:32.483Z,61.74
2022-08-12T06:57:02.416Z,61.84
2022-08-12T06:58:07.525Z,61.44
2022-08-12T06:58:33.443Z,61.01
2022-08-12T06:59:32.561Z,61.51
2022-08-12T07:00:33.023Z,63.11
2022-08-12T07:01:32.476Z,63.01
2022-08-12T07:02:36.736Z,63.71
2022-08-12T07:03:32.390Z,63.42
2022-08-12T07:04:37.314Z,63.58
2022-08-12T07:05:33.389Z,63.78
2022-08-12T07:06:32.354Z,62.68
2022-08-12T07:07:32.347Z,60.75
2022-08-12T07:08:32.333Z,61.45
2022-08-12T07:10:01.370Z,62.05
2022-08-12T07:10:33.330Z,60.35
2022-08-12T07:11:32.300Z,59.95
2022-08-12T07:12:32.554Z,60.12
2022-08-12T07:13:32.310Z,60.69
2022-08-12T07:14:32.291Z,61.16
2022-08-12T07:15:32.261Z,59.83
2022-08-12T07:16:32.272Z,60.14
2022-08-12T07:17:32.236Z,58.14
2022-08-12T07:18:32.225Z,58.97
2022-08-12T07:19:40.390Z,59.74
2022-08-12T07:20:51.732Z,59.31
2022-08-12T07:21:59.885Z,59.08
2022-08-12T07:22:33.191Z,59.78
2022-08-12T07:23:32.177Z,58.95
2022-08-12T07:24:32.183Z,56.85
2022-08-12T07:25:37.183Z,58.03
2022-08-12T07:26:33.135Z,57.53
2022-08-12T07:27:32.149Z,56.01
2022-08-12T07:28:32.137Z,56.21
2022-08-12T07:30:02.510Z,55.80
2022-08-12T07:30:33.092Z,57.17
2022-08-12T07:31:32.085Z,57.17
2022-08-12T07:32:32.079Z,56.18
2022-08-12T07:33:32.358Z,55.16
2022-08-12T07:34:32.048Z,56.15
2022-08-12T07:35:32.038Z,54.63
2022-08-12T07:36:32.054Z,54.31
2022-08-12T07:37:32.017Z,54.93
2022-08-12T07:38:32.011Z,55.53
2022-08-12T07:39:32.046Z,55.13
2022-08-12T07:40:31.983Z,55.33
2022-08-12T07:41:31.996Z,54.71
2022-08-12T07:42:31.962Z,54.18
2022-08-12T07:43:31.954Z,54.28
2022-08-12T07:44:31.945Z,54.06
2022-08-12T07:45:31.950Z,52.37
2022-08-12T07:46:31.917Z,52.56
2022-08-12T07:47:31.912Z,52.34
2022-08-12T07:48:31.897Z,52.24
2022-08-12T07:49:31.889Z,52.96
2022-08-12T07:50:32.894Z,53.83
2022-08-12T07:51:31.865Z,52.07
2022-08-12T07:52:32.004Z,52.09
2022-08-12T07:53:31.851Z,53.06
2022-08-12T07:54:31.852Z,53.04
2022-08-12T07:55:31.825Z,52.81
2022-08-12T07:56:31.818Z,50.93
2022-08-12T07:57:31.820Z,51.92
2022-08-12T07:58:31.788Z,50.93
2022-08-12T07:59:31.778Z,50.40
2022-08-12T08:00:31.765Z,50.28
2022-08-12T08:01:31.864Z,48.80
2022-08-12T08:02:31.755Z,52.04
2022-08-12T08:03:31.733Z,49.64
2022-08-12T08:04:31.748Z,49.84
2022-08-12T08:05:31.743Z,48.43
2022-08-12T08:06:31.706Z,48.23
2022-08-12T08:07:31.731Z,47.61
2022-08-12T08:08:31.688Z,48.33
2022-08-12T08:09:31.669Z,48.03
2022-08-12T08:10:31.661Z,47.53
2022-08-12T08:11:31.648Z,47.74
2022-08-12T08:12:31.673Z,48.75
2022-08-12T08:13:31.648Z,48.43
2022-08-12T08:14:31.615Z,47.93
2022-08-12T08:16:00.594Z,47.61
2022-08-12T08:16:32.597Z,48.28
2022-08-12T08:17:31.602Z,48.68
2022-08-12T08:18:31.574Z,49.66
2022-08-12T08:19:31.562Z,49.77
2022-08-12T08:20:31.558Z,48.38
2022-08-12T08:21:31.543Z,48.88
2022-08-12T08:22:41.819Z,49.05
2022-08-12T08:23:35.135Z,48.73
2022-08-12T08:24:31.541Z,48.46
2022-08-12T08:25:36.070Z,48.14
2022-08-12T08:26:32.560Z,48.61
2022-08-12T08:27:31.485Z,48.78
2022-08-12T08:28:31.465Z,49.37
2022-08-12T08:29:31.462Z,44.51
2022-08-12T08:30:31.450Z,46.47
2022-08-12T08:31:31.454Z,45.95
2022-08-12T08:32:31.489Z,45.36
2022-08-12T08:34:09.193Z,45.26
2022-08-12T08:34:53.865Z,46.64
2022-08-12T08:35:46.202Z,46.25
2022-08-12T08:36:32.602Z,44.39
2022-08-12T08:37:33.422Z,44.83
2022-08-12T08:38:35.366Z,46.39
2022-08-12T08:39:31.367Z,40.76
2022-08-12T08:40:31.337Z,41.38
2022-08-12T08:42:17.737Z,42.14
2022-08-12T08:42:32.424Z,42.22
2022-08-12T08:43:44.140Z,41.81
2022-08-12T08:44:32.294Z,39.32
2022-08-12T08:45:31.280Z,40.29
2022-08-12T08:46:31.292Z,38.01
2022-08-12T08:47:31.286Z,38.78
2022-08-12T08:48:31.268Z,39.56
2022-08-12T08:49:31.238Z,38.10
2022-08-12T08:50:31.231Z,37.89
2022-08-12T08:51:31.218Z,38.28
2022-08-12T08:52:40.424Z,36.22
2022-08-12T08:53:32.196Z,36.04
2022-08-12T08:54:31.189Z,37.41
2022-08-12T08:55:54.262Z,37.49
2022-08-12T08:56:32.167Z,37.49
2022-08-12T08:57:43.140Z,37.40
2022-08-12T08:58:32.170Z,37.48
2022-08-12T08:59:31.135Z,37.67
2022-08-12T09:00:31.130Z,37.46
2022-08-12T09:01:37.376Z,37.15
2022-08-12T09:02:32.211Z,36.07
2022-08-12T09:05:10.023Z,36.59
2022-08-12T09:05:13.566Z,36.02
2022-08-12T09:06:01.472Z,37.87
2022-08-12T09:06:37.763Z,37.55
2022-08-12T09:07:51.655Z,36.55
2022-08-12T09:08:32.057Z,35.59
2022-08-12T09:10:02.985Z,35.78
2022-08-12T09:10:32.663Z,37.44
2022-08-12T09:12:07.593Z,37.82
2022-08-12T09:12:32.018Z,38.09
2022-08-12T09:14:10.630Z,37.29
2022-08-12T09:14:31.971Z,35.82
2022-08-12T09:15:35.277Z,35.23
2022-08-12T09:16:30.954Z,34.75
2022-08-12T09:17:43.008Z,36.40
2022-08-12T09:18:33.258Z,35.23
2022-08-12T09:19:30.922Z,35.42
2022-08-12T09:20:30.914Z,35.91
2022-08-12T09:21:30.902Z,34.74
2022-08-12T09:22:31.891Z,34.25
2022-08-12T09:23:59.955Z,34.16
2022-08-12T09:24:32.012Z,34.67
2022-08-12T09:25:32.534Z,35.16
2022-08-12T09:26:30.878Z,35.05
2022-08-12T09:27:30.838Z,34.75
2022-08-12T09:28:31.925Z,35.14
2022-08-12T09:30:10.745Z,34.47
2022-08-12T09:30:42.243Z,34.77
2022-08-12T09:32:02.873Z,35.66
2022-08-12T09:33:04.242Z,35.06
2022-08-12T09:34:28.602Z,35.14
2022-08-12T09:34:33.296Z,35.24
2022-08-12T09:35:30.756Z,34.83
2022-08-12T09:36:58.364Z,33.87
2022-08-12T09:37:57.658Z,33.89
2022-08-12T09:38:32.091Z,35.67
2022-08-12T09:40:03.265Z,35.38
2022-08-12T09:40:57.611Z,35.26
2022-08-12T09:42:33.453Z,35.05
2022-08-12T09:42:41.174Z,35.05
2022-08-12T09:43:31.756Z,34.74
2022-08-12T09:44:39.476Z,33.87
2022-08-12T09:46:06.630Z,35.06
2022-08-12T09:46:31.665Z,34.87
2022-08-12T09:47:33.554Z,34.20
2022-08-12T09:48:35.004Z,34.78
2022-08-12T09:49:31.610Z,34.18
2022-08-12T09:50:30.618Z,35.06
2022-08-12T09:51:37.792Z,36.07
2022-08-12T09:52:31.937Z,36.32
2022-08-12T09:53:36.294Z,34.54
2022-08-12T09:54:34.719Z,37.19
2022-08-12T09:56:06.301Z,34.54
2022-08-12T09:57:01.631Z,34.54
2022-08-12T09:58:46.072Z,34.66
2022-08-12T09:58:57.008Z,34.28
2022-08-12T10:00:15.435Z,36.52
2022-08-12T10:00:43.183Z,36.58
2022-08-12T10:01:35.531Z,35.11
2022-08-12T10:02:44.156Z,33.94
2022-08-12T10:03:33.193Z,34.64
2022-08-12T10:04:30.533Z,34.13
2022-08-12T10:06:20.230Z,34.23
2022-08-12T10:06:35.918Z,34.80
2022-08-12T10:07:39.441Z,34.62
2022-08-12T10:08:31.414Z,34.41
2022-08-12T10:09:57.502Z,33.82
2022-08-12T10:10:31.386Z,33.54
2022-08-12T10:11:30.398Z,34.26
2022-08-12T10:13:06.763Z,34.83
2022-08-12T10:13:35.210Z,33.84
2022-08-12T10:14:34.267Z,33.54
2022-08-12T10:16:02.342Z,34.42
2022-08-12T10:16:36.798Z,34.54
2022-08-12T10:17:31.320Z,34.25
2022-08-12T10:18:30.311Z,34.95
2022-08-12T10:19:36.496Z,34.56
2022-08-12T10:20:31.283Z,34.75
2022-08-12T10:21:36.283Z,36.01
2022-08-12T10:22:38.802Z,34.25
2022-08-12T10:23:39.216Z,34.01
2022-08-12T10:24:31.249Z,36.57
2022-08-12T10:26:35.747Z,35.26
2022-08-12T10:26:36.911Z,35.24
2022-08-12T10:27:39.300Z,34.46
2022-08-12T10:28:31.205Z,34.47
2022-08-12T10:30:38.783Z,34.26
2022-08-12T10:30:40.260Z,34.66
2022-08-12T10:31:46.951Z,35.02
2022-08-12T10:32:44.038Z,34.03
2022-08-12T10:33:32.244Z,34.54
2022-08-12T10:34:30.141Z,34.06
2022-08-12T10:35:37.717Z,33.85
2022-08-12T10:36:36.141Z,35.24
2022-08-12T10:38:33.694Z,33.75
2022-08-12T10:38:37.478Z,36.22
2022-08-12T10:40:00.632Z,32.78
2022-08-12T10:40:33.142Z,33.85
2022-08-12T10:41:57.111Z,35.34
2022-08-12T10:42:31.058Z,34.66
2022-08-12T10:43:30.070Z,33.49
2022-08-12T10:44:31.087Z,34.85
2022-08-12T10:45:30.438Z,34.74
2022-08-12T10:46:30.471Z,32.87
2022-08-12T10:48:19.771Z,32.69
2022-08-12T10:48:33.886Z,34.06
2022-08-12T10:50:03.350Z,34.66
2022-08-12T10:50:56.358Z,34.03
2022-08-12T10:52:03.939Z,32.76
2022-08-12T10:52:33.827Z,32.76
2022-08-12T10:53:46.040Z,34.23
2022-08-12T10:54:30.935Z,36.39
2022-08-12T10:55:29.925Z,35.99
2022-08-12T10:56:34.866Z,33.74
2022-08-12T10:58:14.487Z,35.05
2022-08-12T10:58:31.957Z,34.56
2022-08-12T11:00:29.033Z,34.10
2022-08-12T11:00:35.728Z,34.67
2022-08-12T11:04:19.434Z,38.24
2022-08-12T11:04:22.743Z,37.38
2022-08-12T11:04:26.955Z,36.61
2022-08-12T11:04:39.628Z,35.31
2022-08-12T11:07:05.760Z,34.94
2022-08-12T11:07:06.193Z,35.20
2022-08-12T11:08:36.832Z,35.18
2022-08-12T11:08:37.229Z,36.52
2022-08-12T11:09:41.964Z,33.39
2022-08-12T11:10:30.882Z,32.02
2022-08-12T11:12:36.688Z,31.94
2022-08-12T11:12:55.067Z,32.90
2022-08-12T11:13:45.848Z,32.89
2022-08-12T11:14:49.489Z,32.50
2022-08-12T11:16:04.292Z,32.40
2022-08-12T11:16:30.729Z,33.97
2022-08-12T11:17:43.319Z,34.66
2022-08-12T11:18:30.685Z,33.49
2022-08-12T11:19:30.319Z,33.59
2022-08-12T11:20:31.223Z,35.06
2022-08-12T11:21:56.165Z,33.69
2022-08-12T11:22:34.370Z,33.62
2022-08-12T11:23:36.828Z,34.82
2022-08-12T11:24:32.312Z,35.21
2022-08-12T11:25:55.817Z,34.53
2022-08-12T11:26:30.621Z,35.51
2022-08-12T11:27:29.702Z,35.77
2022-08-12T11:28:33.995Z,34.36
2022-08-12T11:30:01.562Z,33.95
2022-08-12T11:30:32.105Z,33.26
2022-08-12T11:31:29.553Z,33.44
2022-08-12T11:32:30.561Z,32.45
2022-08-12T11:34:04.970Z,32.45
2022-08-12T11:34:52.685Z,31.87
2022-08-12T11:35:30.506Z,33.07
2022-08-12T11:36:29.469Z,34.34
2022-08-12T11:37:29.457Z,32.28
2022-08-12T11:38:30.468Z,33.36
2022-08-12T11:39:46.504Z,32.18
2022-08-12T11:40:30.428Z,33.58
2022-08-12T11:41:32.031Z,32.21
2022-08-12T11:42:32.581Z,32.98
2022-08-12T11:43:30.805Z,32.30
2022-08-12T11:44:37.186Z,32.20
2022-08-12T11:45:30.390Z,31.90
2022-08-12T11:46:30.534Z,31.60
2022-08-12T11:47:29.357Z,31.60
2022-08-12T11:48:50.891Z,32.18
2022-08-12T11:49:31.512Z,31.71
2022-08-12T11:50:32.272Z,31.51
2022-08-12T11:51:36.353Z,31.43
2022-08-12T11:52:55.130Z,31.63
2022-08-12T11:53:57.591Z,32.50
2022-08-12T11:54:30.658Z,31.51
2022-08-12T11:55:29.619Z,31.61
2022-08-12T11:56:38.276Z,32.12
2022-08-12T11:58:13.650Z,32.50
2022-08-12T11:59:34.775Z,32.10
2022-08-12T12:01:58.318Z,31.70
2022-08-12T12:02:30.274Z,31.71
2022-08-12T12:03:43.901Z,32.20
2022-08-12T12:04:30.210Z,31.70
2022-08-12T12:05:41.977Z,31.51
2022-08-12T12:06:30.167Z,32.59
2022-08-12T12:08:35.968Z,33.75
2022-08-12T12:08:37.369Z,31.89
2022-08-12T12:09:30.157Z,33.07
2022-08-12T12:10:30.125Z,31.79
2022-08-12T12:11:48.844Z,32.50
2022-08-12T12:12:30.105Z,32.04
2022-08-12T12:14:08.005Z,32.15
2022-08-12T12:14:38.127Z,31.85
2022-08-12T12:15:40.775Z,34.10
2022-08-12T12:16:30.071Z,32.53
2022-08-12T12:17:38.311Z,32.04
2022-08-12T12:18:30.999Z,33.59
2022-08-12T12:19:29.038Z,33.80
2022-08-12T12:20:30.476Z,33.91
2022-08-12T12:21:47.771Z,32.92
2022-08-12T12:22:30.963Z,34.89
2022-08-12T12:23:29.531Z,33.82
2022-08-12T12:24:28.984Z,32.62
2022-08-12T12:25:59.278Z,32.72
2022-08-12T12:26:34.853Z,33.39
2022-08-12T12:28:00.704Z,34.67
2022-08-12T12:28:37.235Z,33.39
2022-08-12T12:30:19.596Z,34.06
2022-08-12T12:30:30.446Z,33.48
2022-08-12T12:32:10.774Z,33.28
2022-08-12T12:32:31.021Z,32.69
2022-08-12T12:33:57.264Z,32.02
2022-08-12T12:34:30.688Z,32.12
2022-08-12T12:36:17.102Z,33.02
2022-08-12T12:36:30.896Z,33.39
2022-08-12T12:38:04.590Z,33.10
2022-08-12T12:38:29.852Z,33.41
2022-08-12T12:39:28.900Z,34.69
2022-08-12T12:40:29.996Z,33.82
2022-08-12T12:42:42.498Z,34.70
2022-08-12T12:42:42.817Z,34.51
2022-08-12T12:43:43.303Z,35.10
2022-08-12T12:44:38.883Z,35.39
2022-08-12T12:45:32.323Z,35.41
2022-08-12T12:46:28.782Z,34.90
2022-08-12T12:47:30.160Z,34.03
2022-08-12T12:48:28.740Z,34.23
2022-08-12T12:49:28.732Z,34.54
2022-08-12T12:50:35.264Z,34.94
2022-08-12T12:51:48.657Z,34.34
2022-08-12T12:52:29.960Z,34.53
2022-08-12T12:54:07.872Z,34.53
2022-08-12T12:54:29.676Z,34.75